Talcott, West Virginia
Current Conditions -  °F | °C
As of 7:51 PM on Monday 26 Jan 2015 (Local Time) from KBKW Reporting Station
Light Snow Light Snow  
Wind Chill: 13°   Ceiling: 700
Heat Index: 23°   Visibility: 7mi
Dew Point: 19°   Wind: 9mph
Humidity: 85%   Direction: 320°NW
Pressure: 29.78"   Gusts: NA
Location:  37.65°N, 80.75°W
Report Text: KBKW 270051Z AUTO 32008KT 7SM -SN OVC007 M05/M07 A2978 RMK AO2 SLP112 P0000 T10501072
Loading
Personal Weather Stations






























Interactive Weather Map New forecast layout! Learn more

10-Day Weather Forecast

Advertisements
Track Severe Weather on mobile